Time,TemperatureF,DewpointF,PressureIn,WindDirection,WindDirectionDegrees,WindSpeedMPH,WindSpeedGustMPH,Humidity,HourlyPrecipIn,Conditions,Clouds,dailyrainin,SoftwareType,DateUTC
2013-01-28 00:04:00,33.0,31.0,30.44,ENE,66,0.0,0.0,91,0.00,,,0.02,,2013-01-28 05:04:00,
2013-01-28 00:12:00,33.0,31.0,30.44,ENE,66,0.0,0.0,91,0.00,,,0.02,,2013-01-28 05:12:00,
2013-01-28 00:22:00,33.0,31.0,30.44,ENE,66,0.0,1.0,92,0.00,,,0.02,,2013-01-28 05:22:00,
2013-01-28 00:32:00,33.0,31.0,30.43,ENE,66,0.0,0.0,92,0.00,,,0.02,,2013-01-28 05:32:00,
2013-01-28 00:42:00,33.0,31.0,30.43,ENE,66,0.0,0.0,92,0.00,,,0.02,,2013-01-28 05:42:00,
2013-01-28 00:52:00,33.0,31.0,30.45,ENE,66,0.0,0.0,92,0.00,,,0.02,,2013-01-28 05:52:00,
2013-01-28 01:02:00,33.0,31.0,30.44,ENE,66,0.0,0.0,93,0.00,,,0.02,,2013-01-28 06:02:00,
2013-01-28 01:11:00,33.0,31.0,30.44,ENE,66,0.0,0.0,93,0.00,,,0.02,,2013-01-28 06:11:00,
2013-01-28 01:22:00,32.0,30.0,30.44,ENE,66,0.0,0.0,93,0.00,,,0.02,,2013-01-28 06:22:00,
2013-01-28 01:32:00,32.0,30.0,30.44,ENE,66,0.0,0.0,93,0.00,,,0.02,,2013-01-28 06:32:00,
2013-01-28 01:42:00,32.0,30.0,30.44,ENE,66,0.0,0.0,93,0.00,,,0.02,,2013-01-28 06:42:00,
2013-01-28 01:52:00,32.0,30.0,30.42,ENE,66,0.0,0.0,93,0.00,,,0.02,,2013-01-28 06:52:00,
2013-01-28 02:02:00,32.0,30.0,30.42,ENE,66,0.0,0.0,93,0.00,,,0.02,,2013-01-28 07:02:00,
2013-01-28 02:11:00,32.0,30.0,30.42,ENE,66,0.0,0.0,93,0.00,,,0.02,,2013-01-28 07:11:00,
2013-01-28 02:22:00,32.0,30.0,30.42,ENE,66,0.0,0.0,93,0.00,,,0.02,,2013-01-28 07:22:00,
2013-01-28 02:32:00,32.0,30.0,30.42,ENE,66,0.0,0.0,93,0.00,,,0.02,,2013-01-28 07:32:00,
2013-01-28 02:42:00,32.0,30.0,30.42,ENE,66,0.0,0.0,93,0.00,,,0.02,,2013-01-28 07:42:00,
2013-01-28 02:52:00,32.0,30.0,30.42,ENE,66,0.0,0.0,93,0.00,,,0.02,,2013-01-28 07:52:00,
2013-01-28 03:01:00,32.0,30.0,30.42,ENE,66,0.0,0.0,93,0.00,,,0.02,,2013-01-28 08:01:00,
2013-01-28 03:11:00,32.0,30.0,30.42,ENE,66,0.0,0.0,93,0.00,,,0.02,,2013-01-28 08:11:00,
2013-01-28 03:21:00,32.0,30.0,30.42,ENE,66,0.0,0.0,94,0.00,,,0.02,,2013-01-28 08:21:00,
2013-01-28 03:32:00,32.0,30.0,30.43,ENE,66,0.0,0.0,94,0.00,,,0.02,,2013-01-28 08:32:00,
2013-01-28 03:42:00,32.0,30.0,30.43,ENE,66,0.0,0.0,94,0.00,,,0.02,,2013-01-28 08:42:00,
2013-01-28 03:52:00,33.0,31.0,30.43,ENE,66,0.0,1.0,93,0.00,,,0.02,,2013-01-28 08:52:00,
2013-01-28 04:02:00,33.0,31.0,30.42,ENE,66,0.0,1.0,93,0.00,,,0.02,,2013-01-28 09:02:00,
2013-01-28 04:12:00,33.0,31.0,30.42,ENE,66,0.0,1.0,93,0.00,,,0.02,,2013-01-28 09:12:00,
2013-01-28 04:22:00,33.0,31.0,30.42,ENE,66,0.0,0.0,93,0.00,,,0.02,,2013-01-28 09:22:00,
2013-01-28 04:32:00,33.0,31.0,30.42,ENE,66,0.0,0.0,93,0.00,,,0.02,,2013-01-28 09:32:00,
2013-01-28 04:42:00,33.0,31.0,30.42,ENE,66,0.0,0.0,93,0.00,,,0.02,,2013-01-28 09:42:00,
2013-01-28 04:52:00,33.0,31.0,30.42,ENE,66,0.0,0.0,93,0.00,,,0.02,,2013-01-28 09:52:00,
2013-01-28 05:02:00,33.0,31.0,30.42,ENE,66,0.0,0.0,93,0.00,,,0.02,,2013-01-28 10:02:00,
2013-01-28 05:11:00,33.0,31.0,30.42,ENE,66,0.0,0.0,93,0.00,,,0.02,,2013-01-28 10:11:00,
2013-01-28 05:21:00,33.0,31.0,30.42,ENE,66,0.0,2.0,93,0.00,,,0.02,,2013-01-28 10:21:00,
2013-01-28 05:32:00,32.0,30.0,30.42,ENE,66,0.0,1.0,93,0.00,,,0.02,,2013-01-28 10:32:00,
2013-01-28 05:42:00,32.0,30.0,30.42,ENE,66,0.0,1.0,93,0.00,,,0.02,,2013-01-28 10:42:00,
2013-01-28 05:52:00,32.0,30.0,30.42,ENE,66,0.0,2.0,92,0.00,,,0.02,,2013-01-28 10:52:00,
2013-01-28 06:02:00,32.0,30.0,30.43,ENE,66,0.0,2.0,92,0.00,,,0.02,,2013-01-28 11:02:00,
2013-01-28 06:11:00,32.0,30.0,30.43,ENE,66,0.0,2.0,92,0.00,,,0.02,,2013-01-28 11:11:00,
2013-01-28 06:22:00,32.0,30.0,30.43,ENE,66,0.0,2.0,92,0.00,,,0.02,,2013-01-28 11:22:00,
2013-01-28 06:32:00,33.0,31.0,30.43,ENE,66,0.0,1.0,92,0.00,,,0.02,,2013-01-28 11:32:00,
2013-01-28 06:42:00,33.0,31.0,30.43,ENE,66,0.0,1.0,92,0.00,,,0.02,,2013-01-28 11:42:00,
2013-01-28 06:52:00,33.0,31.0,30.43,ENE,66,0.0,2.0,92,0.00,,,0.02,,2013-01-28 11:52:00,
2013-01-28 07:03:00,32.0,30.0,30.44,ENE,66,0.0,0.0,91,0.00,,,0.02,,2013-01-28 12:03:00,
2013-01-28 07:12:00,32.0,30.0,30.44,ENE,66,0.0,0.0,91,0.00,,,0.02,,2013-01-28 12:12:00,
2013-01-28 07:23:00,33.0,31.0,30.44,ENE,66,0.0,0.0,92,0.00,,,0.02,,2013-01-28 12:23:00,
2013-01-28 07:33:00,33.0,31.0,30.44,ENE,66,0.0,2.0,91,0.00,,,0.02,,2013-01-28 12:33:00,
2013-01-28 07:42:00,33.0,31.0,30.44,ENE,66,0.0,2.0,91,0.00,,,0.02,,2013-01-28 12:42:00,
2013-01-28 07:52:00,33.0,30.0,30.45,ENE,66,0.0,1.0,90,0.00,,,0.02,,2013-01-28 12:52:00,
2013-01-28 08:03:00,33.0,30.0,30.45,ENE,66,0.0,2.0,89,0.00,,,0.02,,2013-01-28 13:03:00,
2013-01-28 08:12:00,33.0,30.0,30.45,ENE,66,0.0,2.0,89,0.00,,,0.02,,2013-01-28 13:12:00,
2013-01-28 08:23:00,34.0,31.0,30.45,ENE,66,0.0,2.0,90,0.00,,,0.02,,2013-01-28 13:23:00,
2013-01-28 08:33:00,34.0,31.0,30.45,ENE,66,0.0,2.0,88,0.00,,,0.02,,2013-01-28 13:33:00,
2013-01-28 08:42:00,34.0,31.0,30.45,ENE,66,0.0,2.0,88,0.00,,,0.02,,2013-01-28 13:42:00,
2013-01-28 08:53:00,34.0,31.0,30.45,WSW,246,2.0,4.0,88,0.00,,,0.02,,2013-01-28 13:53:00,
2013-01-28 09:03:00,34.0,31.0,30.44,WSW,246,0.0,2.0,89,0.00,,,0.02,,2013-01-28 14:03:00,
2013-01-28 09:12:00,34.0,31.0,30.44,WSW,246,0.0,2.0,89,0.00,,,0.02,,2013-01-28 14:12:00,
2013-01-28 09:23:00,34.0,31.0,30.44,SW,234,0.0,2.0,88,0.00,,,0.02,,2013-01-28 14:23:00,
2013-01-28 09:33:00,35.0,32.0,30.44,SSE,168,0.0,2.0,87,0.00,,,0.02,,2013-01-28 14:33:00,
2013-01-28 09:43:00,35.0,32.0,30.44,SSE,168,0.0,2.0,87,0.00,,,0.02,,2013-01-28 14:43:00,
2013-01-28 09:53:00,38.0,34.0,30.44,SSE,168,0.0,2.0,84,0.00,,,0.02,,2013-01-28 14:53:00,
2013-01-28 10:03:00,40.0,35.0,30.44,SSE,168,0.0,1.0,81,0.00,,,0.02,,2013-01-28 15:03:00,
2013-01-28 10:13:00,40.0,35.0,30.44,SSE,168,0.0,1.0,81,0.00,,,0.02,,2013-01-28 15:13:00,
2013-01-28 10:23:00,43.0,36.0,30.44,East,96,2.0,4.0,76,0.00,,,0.02,,2013-01-28 15:23:00,
2013-01-28 10:33:00,42.0,34.0,30.44,East,87,0.0,3.0,73,0.00,,,0.02,,2013-01-28 15:33:00,
2013-01-28 10:43:00,42.0,34.0,30.44,East,87,0.0,3.0,73,0.00,,,0.02,,2013-01-28 15:43:00,
2013-01-28 10:53:00,43.0,35.0,30.43,East,87,0.0,3.0,72,0.00,,,0.02,,2013-01-28 15:53:00,
2013-01-28 11:04:00,46.0,37.0,30.43,East,87,0.0,1.0,71,0.00,,,0.02,,2013-01-28 16:04:00,
2013-01-28 11:12:00,46.0,37.0,30.43,East,87,0.0,1.0,71,0.00,,,0.02,,2013-01-28 16:12:00,
2013-01-28 11:22:00,48.0,38.0,30.42,ENE,68,3.0,5.0,69,0.00,,,0.02,,2013-01-28 16:22:00,
2013-01-28 11:33:00,48.0,39.0,30.42,ENE,68,1.0,3.0,70,0.00,,,0.02,,2013-01-28 16:33:00,
2013-01-28 11:43:00,48.0,39.0,30.42,ENE,68,1.0,3.0,70,0.00,,,0.02,,2013-01-28 16:43:00,
2013-01-28 11:53:00,48.0,38.0,30.41,ENE,68,0.0,1.0,69,0.00,,,0.02,,2013-01-28 16:53:00,
2013-01-28 12:02:00,50.0,40.0,30.40,ENE,68,0.0,1.0,69,0.00,,,0.02,,2013-01-28 17:02:00,
2013-01-28 12:12:00,50.0,40.0,30.40,ENE,68,0.0,1.0,69,0.00,,,0.02,,2013-01-28 17:12:00,
2013-01-28 12:23:00,53.0,43.0,30.39,ENE,68,1.0,3.0,69,0.00,,,0.02,,2013-01-28 17:23:00,
2013-01-28 12:33:00,54.0,44.0,30.37,ENE,68,0.0,3.0,68,0.00,,,0.02,,2013-01-28 17:33:00,
2013-01-28 12:42:00,54.0,44.0,30.37,ENE,68,0.0,3.0,68,0.00,,,0.02,,2013-01-28 17:42:00,
2013-01-28 12:53:00,56.0,45.0,30.35,East,93,2.0,4.0,67,0.00,,,0.02,,2013-01-28 17:53:00,
2013-01-28 13:03:00,59.0,45.0,30.34,North,8,6.0,13.0,60,0.00,,,0.02,,2013-01-28 18:03:00,
2013-01-28 13:12:00,59.0,45.0,30.34,North,8,6.0,13.0,60,0.00,,,0.02,,2013-01-28 18:12:00,
2013-01-28 13:23:00,59.0,45.0,30.32,West,279,7.0,19.0,59,0.00,,,0.02,,2013-01-28 18:23:00,
2013-01-28 13:33:00,59.0,44.0,30.31,SW,216,4.0,18.0,58,0.00,,,0.02,,2013-01-28 18:33:00,
2013-01-28 13:42:00,59.0,44.0,30.31,SW,216,4.0,18.0,58,0.00,,,0.02,,2013-01-28 18:42:00,
2013-01-28 13:53:00,59.0,45.0,30.30,SSW,208,4.0,18.0,60,0.01,,,0.03,,2013-01-28 18:53:00,
2013-01-28 14:02:00,59.0,45.0,30.30,SW,233,7.0,15.0,60,0.01,,,0.03,,2013-01-28 19:02:00,
2013-01-28 14:12:00,59.0,45.0,30.30,SW,233,7.0,15.0,60,0.01,,,0.03,,2013-01-28 19:12:00,
2013-01-28 14:22:00,58.0,45.0,30.29,SW,216,7.0,18.0,61,0.01,,,0.03,,2013-01-28 19:22:00,
2013-01-28 14:33:00,59.0,45.0,30.28,NNW,332,6.0,15.0,60,0.01,,,0.03,,2013-01-28 19:33:00,
2013-01-28 14:42:00,59.0,45.0,30.28,NNW,332,6.0,15.0,60,0.01,,,0.03,,2013-01-28 19:42:00,
2013-01-28 14:53:00,59.0,45.0,30.28,WSW,239,3.0,21.0,60,0.00,,,0.03,,2013-01-28 19:53:00,
2013-01-28 15:03:00,59.0,45.0,30.27,WNW,301,4.0,15.0,59,0.00,,,0.03,,2013-01-28 20:03:00,
2013-01-28 15:12:00,59.0,45.0,30.27,WNW,301,4.0,15.0,59,0.00,,,0.03,,2013-01-28 20:12:00,
2013-01-28 15:22:00,59.0,45.0,30.27,SW,233,5.0,13.0,59,0.00,,,0.03,,2013-01-28 20:22:00,
2013-01-28 15:33:00,60.0,45.0,30.27,NW,307,2.0,14.0,58,0.00,,,0.03,,2013-01-28 20:33:00,
2013-01-28 15:42:00,60.0,45.0,30.27,NW,307,2.0,14.0,58,0.00,,,0.03,,2013-01-28 20:42:00,
2013-01-28 15:53:00,60.0,45.0,30.27,West,270,3.0,9.0,58,0.00,,,0.03,,2013-01-28 20:53:00,
2013-01-28 16:03:00,59.0,45.0,30.27,WSW,237,3.0,10.0,59,0.00,,,0.03,,2013-01-28 21:03:00,
2013-01-28 16:12:00,59.0,45.0,30.27,WSW,237,3.0,10.0,59,0.00,,,0.03,,2013-01-28 21:12:00,
2013-01-28 16:23:00,59.0,45.0,30.27,SE,128,1.0,6.0,59,0.00,,,0.03,,2013-01-28 21:23:00,
2013-01-28 16:33:00,59.0,44.0,30.27,West,269,4.0,8.0,58,0.00,,,0.03,,2013-01-28 21:33:00,
2013-01-28 16:43:00,59.0,44.0,30.27,West,269,4.0,8.0,58,0.00,,,0.03,,2013-01-28 21:43:00,
2013-01-28 16:53:00,59.0,45.0,30.27,West,274,3.0,7.0,60,0.00,,,0.03,,2013-01-28 21:53:00,
2013-01-28 17:02:00,58.0,45.0,30.26,East,97,3.0,8.0,61,0.00,,,0.03,,2013-01-28 22:02:00,
2013-01-28 17:12:00,58.0,45.0,30.26,East,97,3.0,8.0,61,0.00,,,0.03,,2013-01-28 22:12:00,
2013-01-28 17:23:00,57.0,45.0,30.27,SSW,201,0.0,6.0,63,0.00,,,0.03,,2013-01-28 22:23:00,
2013-01-28 17:33:00,56.0,45.0,30.26,WSW,256,2.0,6.0,66,0.00,,,0.03,,2013-01-28 22:33:00,
2013-01-28 17:42:00,56.0,45.0,30.26,WSW,256,2.0,6.0,66,0.00,,,0.03,,2013-01-28 22:42:00,
2013-01-28 17:52:00,54.0,44.0,30.27,WSW,257,2.0,5.0,69,0.00,,,0.03,,2013-01-28 22:52:00,
2013-01-28 18:02:00,53.0,44.0,30.27,West,260,2.0,5.0,72,0.00,,,0.03,,2013-01-28 23:02:00,
2013-01-28 18:12:00,53.0,44.0,30.27,West,260,2.0,5.0,72,0.00,,,0.03,,2013-01-28 23:12:00,
2013-01-28 18:22:00,52.0,44.0,30.27,WSW,258,3.0,6.0,75,0.00,,,0.03,,2013-01-28 23:22:00,
2013-01-28 18:32:00,52.0,44.0,30.27,West,280,3.0,7.0,75,0.00,,,0.03,,2013-01-28 23:32:00,
2013-01-28 18:42:00,52.0,44.0,30.27,West,280,3.0,7.0,75,0.00,,,0.03,,2013-01-28 23:42:00,
2013-01-28 18:53:00,52.0,44.0,30.27,WSW,255,2.0,6.0,74,0.00,,,0.03,,2013-01-28 23:53:00,
2013-01-28 19:02:00,51.0,44.0,30.28,West,274,2.0,7.0,76,0.00,,,0.03,,2013-01-29 00:02:00,
2013-01-28 19:12:00,51.0,44.0,30.28,West,274,2.0,7.0,76,0.00,,,0.03,,2013-01-29 00:12:00,
2013-01-28 19:22:00,51.0,44.0,30.28,West,265,3.0,6.0,78,0.00,,,0.03,,2013-01-29 00:22:00,
2013-01-28 19:32:00,52.0,45.0,30.27,West,277,4.0,9.0,76,0.00,,,0.03,,2013-01-29 00:32:00,
2013-01-28 19:42:00,52.0,45.0,30.27,West,277,4.0,9.0,76,0.00,,,0.03,,2013-01-29 00:42:00,
2013-01-28 19:52:00,52.0,45.0,30.27,West,269,2.0,7.0,77,0.00,,,0.03,,2013-01-29 00:52:00,
2013-01-28 20:02:00,50.0,44.0,30.27,West,260,2.0,4.0,80,0.00,,,0.03,,2013-01-29 01:02:00,
2013-01-28 20:12:00,50.0,44.0,30.27,West,260,2.0,4.0,80,0.00,,,0.03,,2013-01-29 01:12:00,
2013-01-28 20:23:00,49.0,44.0,30.28,West,263,3.0,5.0,82,0.00,,,0.03,,2013-01-29 01:23:00,
2013-01-28 20:32:00,48.0,43.0,30.27,SSW,201,1.0,5.0,83,0.00,,,0.03,,2013-01-29 01:32:00,
2013-01-28 20:42:00,48.0,43.0,30.27,SSW,201,1.0,5.0,83,0.00,,,0.03,,2013-01-29 01:42:00,
2013-01-28 20:53:00,48.0,43.0,30.27,SSW,211,2.0,5.0,83,0.00,,,0.03,,2013-01-29 01:53:00,
2013-01-28 21:02:00,48.0,43.0,30.27,West,260,2.0,5.0,84,0.00,,,0.03,,2013-01-29 02:02:00,
2013-01-28 21:12:00,48.0,43.0,30.27,West,260,2.0,5.0,84,0.00,,,0.03,,2013-01-29 02:12:00,
2013-01-28 21:22:00,48.0,43.0,30.27,SSW,213,0.0,5.0,83,0.00,,,0.03,,2013-01-29 02:22:00,
2013-01-28 21:33:00,49.0,43.0,30.27,WSW,248,3.0,5.0,80,0.00,,,0.03,,2013-01-29 02:33:00,
2013-01-28 21:42:00,49.0,43.0,30.27,WSW,248,3.0,5.0,80,0.00,,,0.03,,2013-01-29 02:42:00,
2013-01-28 21:53:00,49.0,43.0,30.27,SSW,200,4.0,5.0,79,0.00,,,0.03,,2013-01-29 02:53:00,
2013-01-28 22:03:00,49.0,43.0,30.27,WSW,247,2.0,5.0,80,0.00,,,0.03,,2013-01-29 03:03:00,
2013-01-28 22:12:00,49.0,43.0,30.27,WSW,247,2.0,5.0,80,0.00,,,0.03,,2013-01-29 03:12:00,
2013-01-28 22:22:00,49.0,43.0,30.27,SW,235,2.0,5.0,79,0.00,,,0.03,,2013-01-29 03:22:00,
2013-01-28 22:32:00,49.0,42.0,30.27,SSW,210,1.0,5.0,77,0.00,,,0.03,,2013-01-29 03:32:00,
2013-01-28 22:42:00,49.0,42.0,30.27,SSW,210,1.0,5.0,77,0.00,,,0.03,,2013-01-29 03:42:00,
2013-01-28 22:53:00,49.0,42.0,30.27,WSW,252,3.0,4.0,77,0.00,,,0.03,,2013-01-29 03:53:00,
2013-01-28 23:02:00,49.0,42.0,30.27,WSW,248,2.0,4.0,77,0.00,,,0.03,,2013-01-29 04:02:00,
2013-01-28 23:12:00,49.0,42.0,30.27,WSW,248,2.0,4.0,77,0.00,,,0.03,,2013-01-29 04:12:00,
2013-01-28 23:22:00,49.0,43.0,30.26,SW,223,2.0,4.0,79,0.00,,,0.03,,2013-01-29 04:22:00,
2013-01-28 23:32:00,49.0,42.0,30.26,SSW,208,3.0,5.0,78,0.00,,,0.03,,2013-01-29 04:32:00,
2013-01-28 23:42:00,49.0,42.0,30.26,SSW,208,3.0,5.0,78,0.00,,,0.03,,2013-01-29 04:42:00,
2013-01-28 23:52:00,49.0,43.0,30.26,WSW,237,2.0,5.0,80,0.00,,,0.01,,2013-01-29 04:52:00,